sensor_id;sensor_type;location;lat;lon;timestamp;P1;durP1;ratioP1;P2;durP2;ratioP2
10009;SDS011;5044;48.652;9.250;2023-04-06T00:05:09;7.05;;;4.35;;
10009;SDS011;5044;48.652;9.250;2023-04-06T00:10:49;11.15;;;6.10;;
10009;SDS011;5044;48.652;9.250;2023-04-06T00:13:27;9.27;;;5.45;;
10009;SDS011;5044;48.652;9.250;2023-04-06T00:23:32;9.00;;;4.65;;
10009;SDS011;5044;48.652;9.250;2023-04-06T00:26:15;6.60;;;3.78;;
10009;SDS011;5044;48.652;9.250;2023-04-06T00:33:13;6.63;;;4.28;;
10009;SDS011;5044;48.652;9.250;2023-04-06T00:54:35;9.60;;;4.22;;
10009;SDS011;5044;48.652;9.250;2023-04-06T00:57:31;7.10;;;3.85;;
10009;SDS011;5044;48.652;9.250;2023-04-06T01:00:17;6.72;;;3.38;;
10009;SDS011;5044;48.652;9.250;2023-04-06T01:02:53;7.22;;;4.10;;
10009;SDS011;5044;48.652;9.250;2023-04-06T01:05:29;6.75;;;3.65;;
10009;SDS011;5044;48.652;9.250;2023-04-06T01:08:05;5.88;;;4.28;;
10009;SDS011;5044;48.652;9.250;2023-04-06T01:10:47;6.70;;;4.57;;
10009;SDS011;5044;48.652;9.250;2023-04-06T01:13:27;7.60;;;4.32;;
10009;SDS011;5044;48.652;9.250;2023-04-06T01:15:55;9.10;;;4.00;;
10009;SDS011;5044;48.652;9.250;2023-04-06T01:18:30;8.68;;;4.85;;
10009;SDS011;5044;48.652;9.250;2023-04-06T01:21:04;8.02;;;5.15;;
10009;SDS011;5044;48.652;9.250;2023-04-06T01:23:46;8.05;;;4.32;;
10009;SDS011;5044;48.652;9.250;2023-04-06T01:27:14;5.93;;;3.58;;
10009;SDS011;5044;48.652;9.250;2023-04-06T01:29:34;8.18;;;4.18;;
10009;SDS011;5044;48.652;9.250;2023-04-06T01:35:26;6.97;;;4.30;;
10009;SDS011;5044;48.652;9.250;2023-04-06T01:38:07;6.38;;;4.05;;
10009;SDS011;5044;48.652;9.250;2023-04-06T01:40:48;7.40;;;4.25;;
10009;SDS011;5044;48.652;9.250;2023-04-06T01:43:26;9.93;;;4.47;;
10009;SDS011;5044;48.652;9.250;2023-04-06T01:45:53;6.18;;;3.85;;
10009;SDS011;5044;48.652;9.250;2023-04-06T01:48:30;9.48;;;4.47;;
10009;SDS011;5044;48.652;9.250;2023-04-06T02:00:47;6.85;;;3.67;;
10009;SDS011;5044;48.652;9.250;2023-04-06T02:03:20;11.15;;;4.13;;
10009;SDS011;5044;48.652;9.250;2023-04-06T02:05:49;8.18;;;3.60;;
10009;SDS011;5044;48.652;9.250;2023-04-06T02:08:30;9.05;;;4.88;;
10009;SDS011;5044;48.652;9.250;2023-04-06T02:14:16;6.45;;;3.60;;
10009;SDS011;5044;48.652;9.250;2023-04-06T02:16:49;10.73;;;5.97;;
10009;SDS011;5044;48.652;9.250;2023-04-06T02:19:18;8.05;;;4.45;;
10009;SDS011;5044;48.652;9.250;2023-04-06T02:35:14;5.75;;;3.70;;
10009;SDS011;5044;48.652;9.250;2023-04-06T02:37:43;10.65;;;4.78;;
10009;SDS011;5044;48.652;9.250;2023-04-06T02:40:20;8.00;;;4.53;;
10009;SDS011;5044;48.652;9.250;2023-04-06T02:42:54;10.40;;;5.25;;
10009;SDS011;5044;48.652;9.250;2023-04-06T02:45:31;8.05;;;4.45;;
10009;SDS011;5044;48.652;9.250;2023-04-06T02:48:01;8.95;;;4.57;;
10009;SDS011;5044;48.652;9.250;2023-04-06T02:50:44;8.55;;;4.78;;
10009;SDS011;5044;48.652;9.250;2023-04-06T02:53:18;12.57;;;4.60;;
10009;SDS011;5044;48.652;9.250;2023-04-06T02:55:49;7.65;;;5.35;;
10009;SDS011;5044;48.652;9.250;2023-04-06T02:58:25;7.32;;;4.35;;
10009;SDS011;5044;48.652;9.250;2023-04-06T03:01:04;6.00;;;4.05;;
10009;SDS011;5044;48.652;9.250;2023-04-06T03:43:55;5.90;;;3.40;;
10009;SDS011;5044;48.652;9.250;2023-04-06T03:46:28;8.63;;;4.07;;
10009;SDS011;5044;48.652;9.250;2023-04-06T03:49:02;6.57;;;3.85;;
10009;SDS011;5044;48.652;9.250;2023-04-06T03:51:29;8.65;;;4.13;;
10009;SDS011;5044;48.652;9.250;2023-04-06T03:53:57;6.57;;;4.28;;
10009;SDS011;5044;48.652;9.250;2023-04-06T03:56:24;7.63;;;4.00;;
10009;SDS011;5044;48.652;9.250;2023-04-06T03:58:51;7.15;;;3.97;;
10009;SDS011;5044;48.652;9.250;2023-04-06T04:07:37;6.75;;;3.75;;
10009;SDS011;5044;48.652;9.250;2023-04-06T04:10:05;10.07;;;4.65;;
10009;SDS011;5044;48.652;9.250;2023-04-06T04:19:26;7.13;;;3.63;;
10009;SDS011;5044;48.652;9.250;2023-04-06T04:24:30;7.70;;;4.38;;
10009;SDS011;5044;48.652;9.250;2023-04-06T04:26:57;8.40;;;3.63;;
10009;SDS011;5044;48.652;9.250;2023-04-06T04:29:25;5.95;;;4.00;;
10009;SDS011;5044;48.652;9.250;2023-04-06T04:35:15;6.10;;;3.03;;
10009;SDS011;5044;48.652;9.250;2023-04-06T04:37:42;8.85;;;4.68;;
10009;SDS011;5044;48.652;9.250;2023-04-06T04:40:11;11.55;;;4.55;;
10009;SDS011;5044;48.652;9.250;2023-04-06T04:42:38;7.45;;;4.10;;
10009;SDS011;5044;48.652;9.250;2023-04-06T04:45:06;7.38;;;4.72;;
10009;SDS011;5044;48.652;9.250;2023-04-06T04:47:33;8.13;;;5.13;;
10009;SDS011;5044;48.652;9.250;2023-04-06T04:50:00;7.28;;;4.07;;
10009;SDS011;5044;48.652;9.250;2023-04-06T05:02:46;6.72;;;3.78;;
10009;SDS011;5044;48.652;9.250;2023-04-06T05:05:13;9.20;;;5.30;;
10009;SDS011;5044;48.652;9.250;2023-04-06T05:07:41;10.68;;;4.65;;
10009;SDS011;5044;48.652;9.250;2023-04-06T05:21:03;7.45;;;3.55;;
10009;SDS011;5044;48.652;9.250;2023-04-06T05:23:30;7.18;;;3.78;;
10009;SDS011;5044;48.652;9.250;2023-04-06T05:25:57;6.30;;;3.50;;
10009;SDS011;5044;48.652;9.250;2023-04-06T05:28:24;7.70;;;4.07;;
10009;SDS011;5044;48.652;9.250;2023-04-06T05:30:52;7.25;;;4.18;;
10009;SDS011;5044;48.652;9.250;2023-04-06T05:33:19;8.35;;;4.35;;
10009;SDS011;5044;48.652;9.250;2023-04-06T05:35:49;15.07;;;4.60;;
10009;SDS011;5044;48.652;9.250;2023-04-06T05:38:17;8.23;;;4.55;;
10009;SDS011;5044;48.652;9.250;2023-04-06T05:40:44;9.18;;;4.72;;
10009;SDS011;5044;48.652;9.250;2023-04-06T05:46:23;7.90;;;4.45;;
10009;SDS011;5044;48.652;9.250;2023-04-06T05:48:50;6.00;;;3.80;;
10009;SDS011;5044;48.652;9.250;2023-04-06T05:51:17;7.82;;;4.53;;
10009;SDS011;5044;48.652;9.250;2023-04-06T05:53:45;7.80;;;4.63;;
10009;SDS011;5044;48.652;9.250;2023-04-06T05:56:12;10.20;;;4.82;;
10009;SDS011;5044;48.652;9.250;2023-04-06T05:58:40;7.10;;;4.47;;
10009;SDS011;5044;48.652;9.250;2023-04-06T06:01:07;7.25;;;4.15;;
10009;SDS011;5044;48.652;9.250;2023-04-06T06:03:37;8.73;;;4.47;;
10009;SDS011;5044;48.652;9.250;2023-04-06T06:06:04;8.93;;;4.70;;
10009;SDS011;5044;48.652;9.250;2023-04-06T06:08:31;7.18;;;4.93;;
10009;SDS011;5044;48.652;9.250;2023-04-06T06:17:18;9.95;;;4.93;;
10009;SDS011;5044;48.652;9.250;2023-04-06T06:19:47;10.18;;;5.50;;
10009;SDS011;5044;48.652;9.250;2023-04-06T06:22:14;9.65;;;5.25;;
10009;SDS011;5044;48.652;9.250;2023-04-06T06:24:41;8.63;;;5.13;;
10009;SDS011;5044;48.652;9.250;2023-04-06T06:27:08;10.85;;;5.50;;
10009;SDS011;5044;48.652;9.250;2023-04-06T06:29:35;11.70;;;5.43;;
10009;SDS011;5044;48.652;9.250;2023-04-06T06:32:03;9.80;;;5.20;;
10009;SDS011;5044;48.652;9.250;2023-04-06T06:34:31;13.32;;;5.50;;
10009;SDS011;5044;48.652;9.250;2023-04-06T06:36:58;9.38;;;5.68;;
10009;SDS011;5044;48.652;9.250;2023-04-06T06:39:31;11.43;;;4.80;;
10009;SDS011;5044;48.652;9.250;2023-04-06T06:44:45;9.43;;;4.90;;
10009;SDS011;5044;48.652;9.250;2023-04-06T06:47:18;11.35;;;6.03;;
10009;SDS011;5044;48.652;9.250;2023-04-06T06:49:49;11.38;;;6.25;;
10009;SDS011;5044;48.652;9.250;2023-04-06T07:02:35;8.38;;;4.90;;
10009;SDS011;5044;48.652;9.250;2023-04-06T07:05:07;6.90;;;4.55;;
10009;SDS011;5044;48.652;9.250;2023-04-06T07:14:35;7.25;;;4.90;;
10009;SDS011;5044;48.652;9.250;2023-04-06T07:24:02;13.55;;;5.43;;
10009;SDS011;5044;48.652;9.250;2023-04-06T08:27:37;10.88;;;5.35;;
10009;SDS011;5044;48.652;9.250;2023-04-06T08:30:04;11.45;;;5.43;;
10009;SDS011;5044;48.652;9.250;2023-04-06T08:32:48;9.98;;;4.90;;
10009;SDS011;5044;48.652;9.250;2023-04-06T08:35:15;8.73;;;5.22;;
10009;SDS011;5044;48.652;9.250;2023-04-06T08:37:42;8.00;;;5.13;;
10009;SDS011;5044;48.652;9.250;2023-04-06T08:40:11;8.10;;;5.40;;
10009;SDS011;5044;48.652;9.250;2023-04-06T08:42:40;10.05;;;5.45;;
10009;SDS011;5044;48.652;9.250;2023-04-06T08:45:14;8.20;;;5.28;;
10009;SDS011;5044;48.652;9.250;2023-04-06T08:47:42;9.48;;;5.50;;
10009;SDS011;5044;48.652;9.250;2023-04-06T08:50:09;7.05;;;4.85;;
10009;SDS011;5044;48.652;9.250;2023-04-06T08:52:37;8.02;;;5.45;;
10009;SDS011;5044;48.652;9.250;2023-04-06T09:01:22;9.45;;;5.40;;
10009;SDS011;5044;48.652;9.250;2023-04-06T09:03:52;8.38;;;5.50;;
10009;SDS011;5044;48.652;9.250;2023-04-06T09:06:25;8.30;;;5.22;;
10009;SDS011;5044;48.652;9.250;2023-04-06T09:08:53;7.43;;;5.18;;
10009;SDS011;5044;48.652;9.250;2023-04-06T09:11:20;8.50;;;5.85;;
10009;SDS011;5044;48.652;9.250;2023-04-06T09:13:48;10.50;;;6.40;;
10009;SDS011;5044;48.652;9.250;2023-04-06T09:16:19;7.57;;;5.53;;
10009;SDS011;5044;48.652;9.250;2023-04-06T09:18:48;8.45;;;5.75;;
10009;SDS011;5044;48.652;9.250;2023-04-06T09:21:16;9.40;;;5.57;;
10009;SDS011;5044;48.652;9.250;2023-04-06T09:23:44;9.02;;;6.10;;
10009;SDS011;5044;48.652;9.250;2023-04-06T09:26:13;12.75;;;5.53;;
10009;SDS011;5044;48.652;9.250;2023-04-06T09:28:44;9.43;;;5.25;;
10009;SDS011;5044;48.652;9.250;2023-04-06T09:31:12;8.50;;;5.63;;
10009;SDS011;5044;48.652;9.250;2023-04-06T09:33:40;8.55;;;5.47;;
10009;SDS011;5044;48.652;9.250;2023-04-06T09:36:10;8.90;;;5.75;;
10009;SDS011;5044;48.652;9.250;2023-04-06T09:38:39;7.75;;;5.88;;
10009;SDS011;5044;48.652;9.250;2023-04-06T09:41:20;14.30;;;6.68;;
10009;SDS011;5044;48.652;9.250;2023-04-06T09:43:49;8.27;;;5.22;;
10009;SDS011;5044;48.652;9.250;2023-04-06T09:46:16;7.63;;;4.93;;
10009;SDS011;5044;48.652;9.250;2023-04-06T09:48:47;7.72;;;4.63;;
10009;SDS011;5044;48.652;9.250;2023-04-06T09:51:17;8.55;;;6.05;;
10009;SDS011;5044;48.652;9.250;2023-04-06T09:53:45;7.75;;;5.05;;
10009;SDS011;5044;48.652;9.250;2023-04-06T09:56:20;7.28;;;4.07;;
10009;SDS011;5044;48.652;9.250;2023-04-06T09:58:54;6.47;;;4.55;;
10009;SDS011;5044;48.652;9.250;2023-04-06T10:01:28;10.25;;;5.47;;
10009;SDS011;5044;48.652;9.250;2023-04-06T10:04:00;9.18;;;5.07;;
10009;SDS011;5044;48.652;9.250;2023-04-06T10:06:40;8.35;;;5.43;;
10009;SDS011;5044;48.652;9.250;2023-04-06T10:09:07;7.50;;;5.22;;
10009;SDS011;5044;48.652;9.250;2023-04-06T10:11:36;8.60;;;4.68;;
10009;SDS011;5044;48.652;9.250;2023-04-06T10:14:03;9.35;;;4.40;;
10009;SDS011;5044;48.652;9.250;2023-04-06T10:16:31;7.00;;;4.55;;
10009;SDS011;5044;48.652;9.250;2023-04-06T10:19:00;8.63;;;5.15;;
10009;SDS011;5044;48.652;9.250;2023-04-06T10:21:33;8.50;;;4.70;;
10009;SDS011;5044;48.652;9.250;2023-04-06T10:24:06;8.40;;;5.00;;
10009;SDS011;5044;48.652;9.250;2023-04-06T10:26:35;5.63;;;5.03;;
10009;SDS011;5044;48.652;9.250;2023-04-06T10:29:03;6.82;;;5.00;;
10009;SDS011;5044;48.652;9.250;2023-04-06T10:31:30;5.32;;;4.13;;
10009;SDS011;5044;48.652;9.250;2023-04-06T10:33:58;5.95;;;5.32;;
10009;SDS011;5044;48.652;9.250;2023-04-06T10:36:26;6.93;;;5.40;;
10009;SDS011;5044;48.652;9.250;2023-04-06T10:38:55;6.50;;;4.82;;
10009;SDS011;5044;48.652;9.250;2023-04-06T10:41:25;7.68;;;4.80;;
10009;SDS011;5044;48.652;9.250;2023-04-06T10:43:59;6.53;;;4.63;;
10009;SDS011;5044;48.652;9.250;2023-04-06T10:46:26;4.63;;;4.15;;
10009;SDS011;5044;48.652;9.250;2023-04-06T10:48:55;4.75;;;3.33;;
10009;SDS011;5044;48.652;9.250;2023-04-06T10:51:24;6.72;;;4.60;;
10009;SDS011;5044;48.652;9.250;2023-04-06T10:53:53;4.95;;;3.75;;
10009;SDS011;5044;48.652;9.250;2023-04-06T10:56:22;7.63;;;4.15;;
10009;SDS011;5044;48.652;9.250;2023-04-06T10:58:52;7.43;;;3.90;;
10009;SDS011;5044;48.652;9.250;2023-04-06T11:01:22;6.90;;;4.10;;
10009;SDS011;5044;48.652;9.250;2023-04-06T11:03:52;4.55;;;3.58;;
10009;SDS011;5044;48.652;9.250;2023-04-06T11:06:21;4.78;;;4.10;;
10009;SDS011;5044;48.652;9.250;2023-04-06T11:08:49;4.68;;;3.58;;
10009;SDS011;5044;48.652;9.250;2023-04-06T11:11:18;7.07;;;4.22;;
10009;SDS011;5044;48.652;9.250;2023-04-06T11:13:48;5.63;;;3.40;;
10009;SDS011;5044;48.652;9.250;2023-04-06T11:16:19;4.55;;;3.47;;
10009;SDS011;5044;48.652;9.250;2023-04-06T11:18:47;5.63;;;3.60;;
10009;SDS011;5044;48.652;9.250;2023-04-06T11:21:20;5.07;;;3.20;;
10009;SDS011;5044;48.652;9.250;2023-04-06T11:24:03;5.45;;;3.03;;
10009;SDS011;5044;48.652;9.250;2023-04-06T11:26:36;5.50;;;3.15;;
10009;SDS011;5044;48.652;9.250;2023-04-06T11:29:04;6.80;;;3.38;;
10009;SDS011;5044;48.652;9.250;2023-04-06T11:31:32;4.30;;;3.38;;
10009;SDS011;5044;48.652;9.250;2023-04-06T11:34:08;6.20;;;4.60;;
10009;SDS011;5044;48.652;9.250;2023-04-06T11:36:39;5.88;;;3.72;;
10009;SDS011;5044;48.652;9.250;2023-04-06T11:39:08;5.15;;;3.75;;
10009;SDS011;5044;48.652;9.250;2023-04-06T11:41:35;7.07;;;3.95;;
10009;SDS011;5044;48.652;9.250;2023-04-06T11:44:02;5.80;;;3.65;;
10009;SDS011;5044;48.652;9.250;2023-04-06T11:46:32;5.25;;;3.38;;
10009;SDS011;5044;48.652;9.250;2023-04-06T11:49:01;5.20;;;3.67;;
10009;SDS011;5044;48.652;9.250;2023-04-06T11:51:29;7.68;;;4.38;;
10009;SDS011;5044;48.652;9.250;2023-04-06T11:53:56;4.35;;;3.35;;
10009;SDS011;5044;48.652;9.250;2023-04-06T11:56:25;4.47;;;3.60;;
10009;SDS011;5044;48.652;9.250;2023-04-06T11:58:54;4.30;;;2.90;;
10009;SDS011;5044;48.652;9.250;2023-04-06T12:01:22;5.28;;;3.28;;
10009;SDS011;5044;48.652;9.250;2023-04-06T12:03:51;3.92;;;2.80;;
10009;SDS011;5044;48.652;9.250;2023-04-06T12:06:19;4.38;;;3.22;;
10009;SDS011;5044;48.652;9.250;2023-04-06T12:08:46;4.80;;;2.97;;
10009;SDS011;5044;48.652;9.250;2023-04-06T12:11:13;7.07;;;3.03;;
10009;SDS011;5044;48.652;9.250;2023-04-06T12:13:40;3.28;;;2.20;;
10009;SDS011;5044;48.652;9.250;2023-04-06T12:16:07;3.28;;;2.42;;
10009;SDS011;5044;48.652;9.250;2023-04-06T12:18:34;4.43;;;2.78;;
10009;SDS011;5044;48.652;9.250;2023-04-06T12:21:03;4.07;;;2.90;;
10009;SDS011;5044;48.652;9.250;2023-04-06T12:23:30;2.97;;;2.70;;
10009;SDS011;5044;48.652;9.250;2023-04-06T12:25:57;4.53;;;3.20;;
10009;SDS011;5044;48.652;9.250;2023-04-06T12:28:24;4.05;;;2.97;;
10009;SDS011;5044;48.652;9.250;2023-04-06T12:30:52;3.47;;;2.95;;
10009;SDS011;5044;48.652;9.250;2023-04-06T12:33:19;7.28;;;3.13;;
10009;SDS011;5044;48.652;9.250;2023-04-06T12:35:46;3.88;;;2.60;;
10009;SDS011;5044;48.652;9.250;2023-04-06T12:38:22;4.53;;;2.92;;
10009;SDS011;5044;48.652;9.250;2023-04-06T12:40:49;4.72;;;2.78;;
10009;SDS011;5044;48.652;9.250;2023-04-06T12:43:16;4.93;;;3.47;;
10009;SDS011;5044;48.652;9.250;2023-04-06T12:45:43;3.80;;;2.72;;
10009;SDS011;5044;48.652;9.250;2023-04-06T12:48:11;3.50;;;2.42;;
10009;SDS011;5044;48.652;9.250;2023-04-06T12:50:38;4.28;;;2.70;;
10009;SDS011;5044;48.652;9.250;2023-04-06T12:53:05;6.20;;;2.90;;
10009;SDS011;5044;48.652;9.250;2023-04-06T12:55:33;5.07;;;3.03;;
10009;SDS011;5044;48.652;9.250;2023-04-06T12:58:00;5.55;;;3.33;;
10009;SDS011;5044;48.652;9.250;2023-04-06T13:00:28;3.58;;;2.95;;
10009;SDS011;5044;48.652;9.250;2023-04-06T13:02:55;5.85;;;3.40;;
10009;SDS011;5044;48.652;9.250;2023-04-06T13:05:22;5.35;;;2.70;;
10009;SDS011;5044;48.652;9.250;2023-04-06T13:07:49;3.60;;;2.85;;
10009;SDS011;5044;48.652;9.250;2023-04-06T13:10:16;4.88;;;3.08;;
10009;SDS011;5044;48.652;9.250;2023-04-06T13:12:45;3.40;;;2.50;;
10009;SDS011;5044;48.652;9.250;2023-04-06T13:15:12;5.13;;;2.75;;
10009;SDS011;5044;48.652;9.250;2023-04-06T13:17:39;3.25;;;2.50;;
10009;SDS011;5044;48.652;9.250;2023-04-06T13:20:06;4.80;;;3.25;;
10009;SDS011;5044;48.652;9.250;2023-04-06T13:22:34;3.67;;;2.80;;
10009;SDS011;5044;48.652;9.250;2023-04-06T13:25:01;5.85;;;2.88;;
10009;SDS011;5044;48.652;9.250;2023-04-06T13:27:28;4.70;;;2.65;;
10009;SDS011;5044;48.652;9.250;2023-04-06T13:30:00;4.60;;;2.85;;
10009;SDS011;5044;48.652;9.250;2023-04-06T13:32:27;4.30;;;2.83;;
10009;SDS011;5044;48.652;9.250;2023-04-06T13:34:55;3.25;;;2.92;;
10009;SDS011;5044;48.652;9.250;2023-04-06T13:37:22;3.80;;;3.20;;
10009;SDS011;5044;48.652;9.250;2023-04-06T13:39:49;3.80;;;3.20;;
10009;SDS011;5044;48.652;9.250;2023-04-06T13:42:16;2.92;;;2.63;;
10009;SDS011;5044;48.652;9.250;2023-04-06T13:44:43;3.08;;;2.60;;
10009;SDS011;5044;48.652;9.250;2023-04-06T13:47:13;3.85;;;2.65;;
10009;SDS011;5044;48.652;9.250;2023-04-06T13:49:40;5.13;;;2.67;;
10009;SDS011;5044;48.652;9.250;2023-04-06T13:52:07;3.63;;;2.70;;
10009;SDS011;5044;48.652;9.250;2023-04-06T13:54:35;5.88;;;2.42;;
10009;SDS011;5044;48.652;9.250;2023-04-06T13:57:02;4.88;;;2.45;;
10009;SDS011;5044;48.652;9.250;2023-04-06T13:59:31;3.30;;;2.70;;
10009;SDS011;5044;48.652;9.250;2023-04-06T14:01:58;6.13;;;3.33;;
10009;SDS011;5044;48.652;9.250;2023-04-06T14:04:27;4.63;;;2.75;;
10009;SDS011;5044;48.652;9.250;2023-04-06T14:06:54;3.92;;;2.70;;
10009;SDS011;5044;48.652;9.250;2023-04-06T14:09:21;3.22;;;2.72;;
10009;SDS011;5044;48.652;9.250;2023-04-06T14:11:48;4.10;;;3.03;;
10009;SDS011;5044;48.652;9.250;2023-04-06T14:14:15;6.60;;;3.05;;
10009;SDS011;5044;48.652;9.250;2023-04-06T14:16:42;4.45;;;3.10;;
10009;SDS011;5044;48.652;9.250;2023-04-06T14:19:10;4.22;;;2.55;;
10009;SDS011;5044;48.652;9.250;2023-04-06T14:21:38;3.92;;;3.08;;
10009;SDS011;5044;48.652;9.250;2023-04-06T14:24:06;3.17;;;2.20;;
10009;SDS011;5044;48.652;9.250;2023-04-06T14:26:33;4.57;;;2.30;;
10009;SDS011;5044;48.652;9.250;2023-04-06T14:29:01;5.15;;;2.80;;
10009;SDS011;5044;48.652;9.250;2023-04-06T14:31:29;4.28;;;2.28;;
10009;SDS011;5044;48.652;9.250;2023-04-06T14:33:56;4.25;;;2.88;;
10009;SDS011;5044;48.652;9.250;2023-04-06T14:36:22;3.40;;;2.88;;
10009;SDS011;5044;48.652;9.250;2023-04-06T14:38:53;6.40;;;2.90;;
10009;SDS011;5044;48.652;9.250;2023-04-06T14:41:22;3.67;;;3.08;;
10009;SDS011;5044;48.652;9.250;2023-04-06T14:43:51;5.32;;;2.75;;
10009;SDS011;5044;48.652;9.250;2023-04-06T14:46:18;4.90;;;3.60;;
10009;SDS011;5044;48.652;9.250;2023-04-06T14:48:45;4.07;;;2.83;;
10009;SDS011;5044;48.652;9.250;2023-04-06T14:51:12;4.00;;;3.10;;
10009;SDS011;5044;48.652;9.250;2023-04-06T14:53:39;3.70;;;3.08;;
10009;SDS011;5044;48.652;9.250;2023-04-06T14:56:08;3.58;;;2.42;;
10009;SDS011;5044;48.652;9.250;2023-04-06T14:58:35;5.07;;;2.88;;
10009;SDS011;5044;48.652;9.250;2023-04-06T15:01:02;5.55;;;3.05;;
10009;SDS011;5044;48.652;9.250;2023-04-06T15:03:29;8.55;;;3.00;;
10009;SDS011;5044;48.652;9.250;2023-04-06T15:05:56;4.85;;;3.10;;
10009;SDS011;5044;48.652;9.250;2023-04-06T15:08:24;3.47;;;2.80;;
10009;SDS011;5044;48.652;9.250;2023-04-06T15:10:51;4.38;;;3.25;;
10009;SDS011;5044;48.652;9.250;2023-04-06T15:13:21;4.25;;;2.90;;
10009;SDS011;5044;48.652;9.250;2023-04-06T15:25:28;5.78;;;3.28;;
10009;SDS011;5044;48.652;9.250;2023-04-06T15:40:35;7.75;;;3.70;;
10009;SDS011;5044;48.652;9.250;2023-04-06T15:43:42;6.25;;;3.45;;
10009;SDS011;5044;48.652;9.250;2023-04-06T15:46:31;5.97;;;3.33;;
10009;SDS011;5044;48.652;9.250;2023-04-06T15:52:57;6.00;;;2.92;;
10009;SDS011;5044;48.652;9.250;2023-04-06T15:55:25;6.20;;;4.15;;
10009;SDS011;5044;48.652;9.250;2023-04-06T17:41:39;7.32;;;5.10;;
10009;SDS011;5044;48.652;9.250;2023-04-06T18:15:01;10.43;;;4.82;;
10009;SDS011;5044;48.652;9.250;2023-04-06T18:17:29;6.53;;;4.30;;
10009;SDS011;5044;48.652;9.250;2023-04-06T18:19:59;6.72;;;4.35;;
10009;SDS011;5044;48.652;9.250;2023-04-06T18:22:26;8.30;;;4.53;;
10009;SDS011;5044;48.652;9.250;2023-04-06T18:24:56;10.45;;;5.47;;
10009;SDS011;5044;48.652;9.250;2023-04-06T18:27:24;8.02;;;4.35;;
10009;SDS011;5044;48.652;9.250;2023-04-06T18:30:02;7.35;;;4.65;;
10009;SDS011;5044;48.652;9.250;2023-04-06T18:32:34;7.25;;;4.22;;
10009;SDS011;5044;48.652;9.250;2023-04-06T18:35:03;5.65;;;3.88;;
10009;SDS011;5044;48.652;9.250;2023-04-06T18:37:38;7.07;;;3.63;;
10009;SDS011;5044;48.652;9.250;2023-04-06T18:40:29;8.20;;;3.83;;
10009;SDS011;5044;48.652;9.250;2023-04-06T18:43:03;6.68;;;3.83;;
10009;SDS011;5044;48.652;9.250;2023-04-06T18:45:34;9.88;;;5.70;;
10009;SDS011;5044;48.652;9.250;2023-04-06T18:48:13;9.25;;;6.35;;
10009;SDS011;5044;48.652;9.250;2023-04-06T18:50:40;7.68;;;5.13;;
10009;SDS011;5044;48.652;9.250;2023-04-06T18:53:21;8.68;;;5.80;;
10009;SDS011;5044;48.652;9.250;2023-04-06T18:55:50;7.32;;;4.55;;
10009;SDS011;5044;48.652;9.250;2023-04-06T18:58:22;5.05;;;3.53;;
10009;SDS011;5044;48.652;9.250;2023-04-06T19:00:53;6.57;;;4.07;;
10009;SDS011;5044;48.652;9.250;2023-04-06T19:03:33;8.25;;;4.10;;
10009;SDS011;5044;48.652;9.250;2023-04-06T19:06:04;8.48;;;5.07;;
10009;SDS011;5044;48.652;9.250;2023-04-06T19:08:38;8.27;;;4.25;;
10009;SDS011;5044;48.652;9.250;2023-04-06T19:11:06;6.63;;;3.95;;
10009;SDS011;5044;48.652;9.250;2023-04-06T19:13:38;7.75;;;4.90;;
10009;SDS011;5044;48.652;9.250;2023-04-06T19:16:10;8.30;;;4.38;;
10009;SDS011;5044;48.652;9.250;2023-04-06T19:18:41;8.60;;;4.13;;
10009;SDS011;5044;48.652;9.250;2023-04-06T19:21:15;8.55;;;5.05;;
10009;SDS011;5044;48.652;9.250;2023-04-06T19:27:07;7.13;;;4.25;;
10009;SDS011;5044;48.652;9.250;2023-04-06T19:43:37;8.23;;;4.00;;
10009;SDS011;5044;48.652;9.250;2023-04-06T19:46:23;6.53;;;3.85;;
10009;SDS011;5044;48.652;9.250;2023-04-06T21:50:05;3.92;;;2.50;;
10009;SDS011;5044;48.652;9.250;2023-04-06T21:53:11;6.35;;;3.90;;
10009;SDS011;5044;48.652;9.250;2023-04-06T21:55:41;4.53;;;3.58;;
10009;SDS011;5044;48.652;9.250;2023-04-06T21:58:37;4.20;;;2.95;;
10009;SDS011;5044;48.652;9.250;2023-04-06T22:01:08;4.05;;;2.63;;
10009;SDS011;5044;48.652;9.250;2023-04-06T22:03:37;6.00;;;4.07;;
10009;SDS011;5044;48.652;9.250;2023-04-06T22:06:14;4.50;;;3.20;;
10009;SDS011;5044;48.652;9.250;2023-04-06T22:08:41;3.42;;;2.53;;
10009;SDS011;5044;48.652;9.250;2023-04-06T22:11:25;5.00;;;2.90;;
10009;SDS011;5044;48.652;9.250;2023-04-06T22:14:00;6.45;;;3.40;;
10009;SDS011;5044;48.652;9.250;2023-04-06T22:16:58;5.38;;;2.85;;
10009;SDS011;5044;48.652;9.250;2023-04-06T22:19:38;4.95;;;3.60;;
10009;SDS011;5044;48.652;9.250;2023-04-06T22:22:08;3.70;;;2.72;;
10009;SDS011;5044;48.652;9.250;2023-04-06T22:34:58;5.32;;;2.78;;
10009;SDS011;5044;48.652;9.250;2023-04-06T22:37:27;4.28;;;2.75;;
10009;SDS011;5044;48.652;9.250;2023-04-06T22:39:53;6.63;;;3.42;;
10009;SDS011;5044;48.652;9.250;2023-04-06T22:42:21;4.45;;;3.22;;
10009;SDS011;5044;48.652;9.250;2023-04-06T22:44:48;5.03;;;3.22;;
10009;SDS011;5044;48.652;9.250;2023-04-06T22:47:15;6.53;;;3.03;;
10009;SDS011;5044;48.652;9.250;2023-04-06T22:49:44;4.80;;;2.75;;
10009;SDS011;5044;48.652;9.250;2023-04-06T22:54:49;5.78;;;3.25;;
10009;SDS011;5044;48.652;9.250;2023-04-06T22:57:16;3.38;;;2.63;;
10009;SDS011;5044;48.652;9.250;2023-04-06T22:59:59;4.32;;;3.13;;
10009;SDS011;5044;48.652;9.250;2023-04-06T23:02:35;3.22;;;2.63;;
10009;SDS011;5044;48.652;9.250;2023-04-06T23:05:14;4.30;;;2.83;;
10009;SDS011;5044;48.652;9.250;2023-04-06T23:07:44;4.75;;;2.90;;
10009;SDS011;5044;48.652;9.250;2023-04-06T23:10:25;4.70;;;2.80;;
10009;SDS011;5044;48.652;9.250;2023-04-06T23:12:53;3.80;;;2.65;;
10009;SDS011;5044;48.652;9.250;2023-04-06T23:15:20;4.40;;;2.47;;
10009;SDS011;5044;48.652;9.250;2023-04-06T23:17:47;4.72;;;2.60;;
10009;SDS011;5044;48.652;9.250;2023-04-06T23:20:14;5.88;;;2.50;;
